ePrivacy and GPDR Cookie Consent by Cookie Consent
EmailTwitter


Observations de surface / Québec / CYHU (71371)

Régions: Québec | Canada | États-Unis | Europe | France | UK | Ailleurs
Station
Affichage
Infos & localisation pour CYHU (71371) | Aide pour décoder les METARs

Observations prises le 2022-12-07 à 16H45 UTC à MONTREAL/ST HUBE, QB (CYHU)

Etat du ciel: couvert.

Température: 10.0 Celsius

Point de rosée: 9.0 Celsius

Humidité relative: 93%

Vents: Sud à 11 km/h ou 6 noeuds.

Pression au niveau moyen de la mer: 101.84 kilopascals.

Calage altimétrique: 101.83 kilopascals ou 30.07 pouces de mercure.

Visibilité horizontale: 9.00 milles terrestres ou 14.40 kilomètres.

Hauteur du plafond: 122 mètres ( 400 pieds ).

Observation METAR:

CYHU 071645Z AUTO 18006KT 9SM OVC004 10/09 A3007 RMK SLP184=